Webster, Nebraska
Current Conditions -  °F | °C
As of 1:53 AM on Monday 24 Nov 2014 (Local Time) from KODX Reporting Station
Clear Clear  
Wind Chill: 17°   Ceiling: Unl
Heat Index: 30°   Visibility: 10mi
Dew Point: 18°   Wind: 23mph
Humidity: 61%   Direction: 320°NW
Pressure: 29.62"   Gusts: 31mph
Location:  41.3026°N, 99.0141°W
Report Text: KODX 240753Z AUTO 32020G27KT 10SM CLR M01/M08 A2962 RMK AO2 PK WND 33028/0705 SLP042 T10111078
Loading
Personal Weather Stations






























Interactive Weather Map New forecast layout! Learn more

10-Day Weather Forecast

Advertisements
Track Severe Weather on mobile